Terminal Aerodrome Forecast
Issued by NWS

Current Version | Previous Version | Graphics & Text | Print | Product List | Glossary On
Versions: 1 2 3 4 5 6 7 8 9 10 11 12 13 14 15 16 17 18 19 20 21 22 23 24 25
000
FTUS41 KILN 300822 AAA
TAFLUK
TAF AMD
KLUK 300822Z 3008/3106 00000KT 6SM BR SCT250
      TEMPO 3008/3011 1 1/2SM BR SCT005
     FM301300 02005KT P6SM FEW050
     FM310000 VRB03KT P6SM BKN250=

USA.gov is the U.S. government's official web portal to all federal, state and local government web resources and services.